createdAt,value
2023-05-19T00:00:37.995Z,102302.53
2023-05-19T00:03:09.299Z,102306.19
2023-05-19T00:05:41.268Z,102300.03
2023-05-19T00:08:12.333Z,102306.72
2023-05-19T00:10:41.032Z,102316.34
2023-05-19T00:13:10.290Z,102318.69
2023-05-19T00:15:41.181Z,102311.13
2023-05-19T00:18:10.255Z,102309.53
2023-05-19T00:20:39.104Z,102320.56
2023-05-19T00:23:07.714Z,102323.69
2023-05-19T00:25:36.290Z,102325.97
2023-05-19T00:28:05.187Z,102325.28
2023-05-19T00:30:33.901Z,102334.75
2023-05-19T00:33:04.072Z,102335.03
2023-05-19T00:35:32.768Z,102334.63
2023-05-19T00:38:01.377Z,102340.69
2023-05-19T00:40:33.589Z,102341.78
2023-05-19T00:43:03.058Z,102348.13
2023-05-19T00:45:32.029Z,102346.72
2023-05-19T00:48:00.658Z,102354.00
2023-05-19T00:50:31.198Z,102347.59
2023-05-19T00:53:00.172Z,102345.72
2023-05-19T00:55:30.666Z,102352.16
2023-05-19T00:57:59.422Z,102361.84
2023-05-19T01:00:28.430Z,102356.81
2023-05-19T01:02:57.358Z,102362.09
2023-05-19T01:05:26.018Z,102356.31
2023-05-19T01:07:57.045Z,102358.06
2023-05-19T01:10:26.482Z,102361.44
2023-05-19T01:12:55.336Z,102363.69
2023-05-19T01:15:25.383Z,102359.50
2023-05-19T01:18:01.514Z,102364.53
2023-05-19T01:20:38.644Z,102364.03
2023-05-19T01:23:25.195Z,102372.44
2023-05-19T01:26:18.351Z,102380.94
2023-05-19T01:29:25.051Z,102372.06
2023-05-19T01:32:00.620Z,102378.22
2023-05-19T01:34:31.916Z,102369.03
2023-05-19T01:37:03.047Z,102376.38
2023-05-19T01:39:31.428Z,102379.97
2023-05-19T01:42:01.245Z,102380.53
2023-05-19T01:44:30.616Z,102383.53
2023-05-19T01:47:00.794Z,102380.31
2023-05-19T01:49:29.534Z,102384.75
2023-05-19T01:51:58.511Z,102381.22
2023-05-19T01:54:27.138Z,102382.00
2023-05-19T01:57:10.467Z,102391.63
2023-05-19T01:59:49.366Z,102395.53
2023-05-19T02:02:27.800Z,102399.78
2023-05-19T02:05:03.536Z,102397.47
2023-05-19T02:07:42.985Z,102401.97
2023-05-19T02:10:16.069Z,102398.03
2023-05-19T02:12:47.317Z,102397.66
2023-05-19T02:15:18.116Z,102401.97
2023-05-19T02:17:52.148Z,102392.25
2023-05-19T02:20:22.373Z,102398.59
2023-05-19T02:22:51.077Z,102402.47
2023-05-19T02:25:20.155Z,102405.78
2023-05-19T02:27:49.348Z,102394.03
2023-05-19T02:30:18.064Z,102399.44
2023-05-19T02:32:48.216Z,102399.88
2023-05-19T02:35:17.890Z,102409.00
2023-05-19T02:37:46.543Z,102412.38
2023-05-19T02:40:16.224Z,102413.91
2023-05-19T02:42:44.832Z,102417.38
2023-05-19T02:45:13.697Z,102412.22
2023-05-19T02:47:43.243Z,102422.38
2023-05-19T02:50:13.381Z,102430.72
2023-05-19T02:52:41.914Z,102425.50
2023-05-19T02:55:17.176Z,102427.84
2023-05-19T02:57:45.921Z,102425.22
2023-05-19T03:00:15.699Z,102430.94
2023-05-19T03:02:46.280Z,102425.06
2023-05-19T03:05:16.546Z,102424.25
2023-05-19T03:07:45.330Z,102426.44
2023-05-19T03:10:14.019Z,102430.97
2023-05-19T03:12:42.782Z,102437.41
2023-05-19T03:15:13.418Z,102435.00
2023-05-19T03:17:42.332Z,102434.53
2023-05-19T03:20:12.270Z,102435.34
2023-05-19T03:22:42.719Z,102437.06
2023-05-19T03:25:12.035Z,102431.22
2023-05-19T03:27:40.975Z,102441.06
2023-05-19T03:30:11.051Z,102437.84
2023-05-19T03:32:52.811Z,102437.19
2023-05-19T03:35:22.202Z,102444.63
2023-05-19T03:37:52.458Z,102439.50
2023-05-19T03:40:22.662Z,102445.63
2023-05-19T03:42:54.530Z,102440.88
2023-05-19T03:45:23.410Z,102441.22
2023-05-19T03:47:54.026Z,102450.25
2023-05-19T03:50:48.830Z,102446.84
2023-05-19T03:53:23.558Z,102446.97
2023-05-19T03:55:52.458Z,102448.63
2023-05-19T03:58:21.158Z,102446.31
2023-05-19T04:00:49.836Z,102438.38
2023-05-19T04:03:18.665Z,102437.72
2023-05-19T04:05:47.400Z,102440.03
2023-05-19T04:08:16.768Z,102449.16
2023-05-19T04:10:46.951Z,102441.63
2023-05-19T04:13:16.187Z,102441.56
2023-05-19T04:15:44.961Z,102439.59
2023-05-19T04:18:13.784Z,102441.03
2023-05-19T04:20:42.621Z,102438.69
2023-05-19T04:23:11.408Z,102434.50
2023-05-19T04:25:41.046Z,102444.03
2023-05-19T04:28:11.227Z,102443.03
2023-05-19T04:30:40.047Z,102441.56
2023-05-19T04:33:09.240Z,102440.31
2023-05-19T04:35:38.384Z,102440.09
2023-05-19T04:38:07.834Z,102445.09
2023-05-19T04:40:37.377Z,102443.28
2023-05-19T04:43:07.559Z,102446.19
2023-05-19T04:45:42.722Z,102443.59
2023-05-19T04:48:14.311Z,102442.00
2023-05-19T04:50:43.449Z,102440.78
2023-05-19T04:53:12.071Z,102443.72
2023-05-19T04:55:40.990Z,102443.06
2023-05-19T04:58:09.792Z,102449.44
2023-05-19T05:00:40.229Z,102453.16
2023-05-19T05:03:10.341Z,102457.81
2023-05-19T05:05:40.231Z,102458.44
2023-05-19T05:08:08.949Z,102453.56
2023-05-19T05:10:42.163Z,102463.38
2023-05-19T05:13:11.896Z,102463.09
2023-05-19T05:15:43.447Z,102461.72
2023-05-19T05:18:13.424Z,102461.03
2023-05-19T05:20:43.199Z,102450.97
2023-05-19T05:23:14.825Z,102451.75
2023-05-19T05:25:46.182Z,102461.34
2023-05-19T05:28:16.058Z,102455.59
2023-05-19T05:30:46.664Z,102452.13
2023-05-19T05:33:16.801Z,102461.66
2023-05-19T05:35:46.860Z,102459.72
2023-05-19T05:38:16.578Z,102465.81
2023-05-19T05:40:45.329Z,102470.97
2023-05-19T05:43:14.004Z,102469.13
2023-05-19T05:45:50.275Z,102471.22
2023-05-19T05:48:19.793Z,102467.34
2023-05-19T05:50:50.493Z,102474.25
2023-05-19T05:53:26.107Z,102468.22
2023-05-19T05:55:57.062Z,102473.59
2023-05-19T05:58:30.161Z,102479.25
2023-05-19T06:01:00.497Z,102475.97
2023-05-19T06:03:29.286Z,102479.44
2023-05-19T06:06:02.233Z,102477.72
2023-05-19T06:08:30.916Z,102479.38
2023-05-19T06:10:59.775Z,102483.13
2023-05-19T06:13:30.547Z,102482.06
2023-05-19T06:16:01.973Z,102475.97
2023-05-19T06:18:43.531Z,102483.84
2023-05-19T06:21:13.715Z,102476.94
2023-05-19T06:23:43.598Z,102474.38
2023-05-19T06:26:13.323Z,102481.31
2023-05-19T06:28:41.965Z,102473.53
2023-05-19T06:31:12.278Z,102483.19
2023-05-19T06:34:01.173Z,102482.75
2023-05-19T06:36:30.053Z,102481.28
2023-05-19T06:39:01.896Z,102474.59
2023-05-19T06:41:33.055Z,102482.28
2023-05-19T06:44:01.819Z,102484.50
2023-05-19T06:46:35.911Z,102489.88
2023-05-19T06:49:05.836Z,102491.91
2023-05-19T06:51:39.357Z,102482.28
2023-05-19T06:54:11.172Z,102477.59
2023-05-19T06:56:39.988Z,102477.63
2023-05-19T06:59:09.124Z,102489.19
2023-05-19T07:01:40.851Z,102479.19
2023-05-19T07:04:10.171Z,102475.84
2023-05-19T07:06:38.975Z,102472.75
2023-05-19T07:09:09.174Z,102468.19
2023-05-19T07:11:39.407Z,102471.22
2023-05-19T07:14:09.016Z,102471.50
2023-05-19T07:16:37.777Z,102471.13
2023-05-19T07:19:09.184Z,102467.22
2023-05-19T07:21:37.989Z,102484.88
2023-05-19T07:24:06.971Z,102477.69
2023-05-19T07:26:36.134Z,102477.75
2023-05-19T07:29:05.136Z,102466.19
2023-05-19T07:31:34.067Z,102465.69
2023-05-19T07:34:02.777Z,102461.63
2023-05-19T07:36:32.935Z,102464.00
2023-05-19T07:39:01.723Z,102465.72
2023-05-19T07:41:30.469Z,102464.84
2023-05-19T07:43:59.101Z,102466.56
2023-05-19T07:46:27.938Z,102461.78
2023-05-19T07:48:56.709Z,102448.84
2023-05-19T07:51:25.443Z,102451.66
2023-05-19T07:53:55.653Z,102463.22
2023-05-19T07:56:25.045Z,102455.63
2023-05-19T07:58:53.747Z,102448.84
2023-05-19T08:01:22.361Z,102457.72
2023-05-19T08:03:51.208Z,102461.63
2023-05-19T08:06:19.881Z,102459.81
2023-05-19T08:08:48.624Z,102462.28
2023-05-19T08:11:18.783Z,102459.44
2023-05-19T08:13:49.375Z,102453.28
2023-05-19T08:16:18.107Z,102452.78
2023-05-19T08:18:46.832Z,102454.50
2023-05-19T08:21:15.503Z,102449.06
2023-05-19T08:23:44.148Z,102458.53
2023-05-19T08:26:12.963Z,102448.41
2023-05-19T08:28:43.071Z,102449.50
2023-05-19T08:31:11.998Z,102449.88
2023-05-19T08:33:40.745Z,102454.09
2023-05-19T08:36:09.584Z,102443.25
2023-05-19T08:38:38.188Z,102441.69
2023-05-19T08:41:06.997Z,102440.72
2023-05-19T08:43:35.715Z,102437.84
2023-05-19T08:46:07.203Z,102428.41
2023-05-19T08:48:38.895Z,102425.69
2023-05-19T08:51:16.146Z,102427.16
2023-05-19T08:53:50.390Z,102429.22
2023-05-19T08:56:23.425Z,102434.88
2023-05-19T08:58:52.965Z,102428.31
2023-05-19T09:01:24.719Z,102431.75
2023-05-19T09:03:53.663Z,102428.41
2023-05-19T09:06:22.322Z,102433.41
2023-05-19T09:08:51.006Z,102432.16
2023-05-19T09:11:19.734Z,102431.03
2023-05-19T09:13:48.967Z,102422.66
2023-05-19T09:16:18.168Z,102424.78
2023-05-19T09:18:57.455Z,102424.88
2023-05-19T09:21:31.800Z,102425.03
2023-05-19T09:24:05.260Z,102426.38
2023-05-19T09:26:39.384Z,102427.38
2023-05-19T09:29:15.351Z,102423.06
2023-05-19T09:31:51.879Z,102415.84
2023-05-19T09:34:25.137Z,102413.00
2023-05-19T09:36:54.871Z,102412.03
2023-05-19T09:39:25.459Z,102418.50
2023-05-19T09:41:55.099Z,102417.91
2023-05-19T09:44:24.537Z,102421.34
2023-05-19T09:46:54.317Z,102412.03
2023-05-19T09:49:25.538Z,102407.56
2023-05-19T09:51:56.846Z,102402.53
2023-05-19T09:54:27.668Z,102399.13
2023-05-19T09:57:00.430Z,102396.84
2023-05-19T09:59:32.884Z,102397.28
2023-05-19T10:02:03.298Z,102406.31
2023-05-19T10:04:33.490Z,102400.53
2023-05-19T10:07:06.030Z,102401.69
2023-05-19T10:09:35.611Z,102407.84
2023-05-19T10:12:04.892Z,102407.13
2023-05-19T10:14:33.562Z,102400.97
2023-05-19T10:17:02.131Z,102397.44
2023-05-19T10:19:32.913Z,102399.19
2023-05-19T10:22:01.667Z,102395.88
2023-05-19T10:24:30.213Z,102394.34
2023-05-19T10:27:05.065Z,102384.94
2023-05-19T10:29:37.925Z,102386.13
2023-05-19T10:32:12.074Z,102380.66
2023-05-19T10:35:18.103Z,102378.03
2023-05-19T10:37:54.684Z,102380.22
2023-05-19T10:40:29.268Z,102372.19
2023-05-19T10:43:17.299Z,102375.22
2023-05-19T10:45:50.264Z,102377.06
2023-05-19T10:48:21.029Z,102375.00
2023-05-19T10:50:54.374Z,102384.44
2023-05-19T10:53:23.575Z,102375.94
2023-05-19T10:55:56.942Z,102368.44
2023-05-19T10:58:52.454Z,102373.47
2023-05-19T11:01:22.420Z,102375.69
2023-05-19T11:03:53.552Z,102365.00
2023-05-19T11:06:27.678Z,102372.81
2023-05-19T11:08:59.013Z,102366.84
2023-05-19T11:11:28.513Z,102366.84
2023-05-19T11:13:57.922Z,102369.72
2023-05-19T11:16:30.221Z,102376.84
2023-05-19T11:19:01.774Z,102369.13
2023-05-19T11:21:50.812Z,102369.97
2023-05-19T11:24:38.355Z,102367.50
2023-05-19T11:27:24.387Z,102358.59
2023-05-19T11:29:53.516Z,102370.34
2023-05-19T11:32:22.844Z,102366.59
2023-05-19T11:34:51.732Z,102364.25
2023-05-19T11:37:21.809Z,102364.34
2023-05-19T11:39:51.075Z,102364.31
2023-05-19T11:42:19.731Z,102359.91
2023-05-19T11:44:48.545Z,102364.00
2023-05-19T11:47:18.573Z,102366.75
2023-05-19T11:49:49.876Z,102359.97
2023-05-19T11:52:18.876Z,102356.94
2023-05-19T11:54:50.183Z,102358.44
2023-05-19T11:57:18.995Z,102362.66
2023-05-19T11:59:50.004Z,102356.84
2023-05-19T12:02:20.699Z,102359.56
2023-05-19T12:04:49.995Z,102367.63
2023-05-19T12:07:19.772Z,102361.69
2023-05-19T12:09:50.765Z,102362.88
2023-05-19T12:12:20.816Z,102363.00
2023-05-19T12:14:50.341Z,102351.00
2023-05-19T12:17:20.891Z,102360.31
2023-05-19T12:19:50.653Z,102346.84
2023-05-19T12:22:20.613Z,102365.47
2023-05-19T12:24:52.018Z,102354.88
2023-05-19T12:27:22.020Z,102359.72
2023-05-19T12:29:54.402Z,102355.19
2023-05-19T12:32:25.742Z,102350.59
2023-05-19T12:34:54.938Z,102356.28
2023-05-19T12:37:23.750Z,102354.25
2023-05-19T12:39:53.948Z,102351.41
2023-05-19T12:42:22.575Z,102336.19
2023-05-19T12:44:52.855Z,102345.63
2023-05-19T12:47:23.044Z,102353.94
2023-05-19T12:49:58.411Z,102341.38
2023-05-19T12:52:27.985Z,102343.66
2023-05-19T12:55:02.052Z,102349.66
2023-05-19T12:57:32.218Z,102341.22
2023-05-19T13:00:07.255Z,102344.63
2023-05-19T13:02:37.022Z,102331.53
2023-05-19T13:05:08.452Z,102336.94
2023-05-19T13:07:37.154Z,102334.66
2023-05-19T13:10:08.447Z,102335.06
2023-05-19T13:12:37.386Z,102335.75
2023-05-19T13:15:07.446Z,102335.88
2023-05-19T13:17:36.994Z,102342.63
2023-05-19T13:20:06.516Z,102341.38
2023-05-19T13:22:35.266Z,102329.03
2023-05-19T13:25:03.846Z,102327.88
2023-05-19T13:27:33.980Z,102330.47
2023-05-19T13:30:02.622Z,102326.03
2023-05-19T13:32:31.425Z,102324.50
2023-05-19T13:35:00.131Z,102318.75
2023-05-19T13:37:28.980Z,102323.44
2023-05-19T13:39:58.700Z,102322.94
2023-05-19T13:42:27.489Z,102324.75
2023-05-19T13:44:57.828Z,102328.06
2023-05-19T13:47:26.969Z,102326.50
2023-05-19T13:49:55.697Z,102328.69
2023-05-19T13:52:24.514Z,102324.94
2023-05-19T13:54:54.789Z,102328.94
2023-05-19T13:57:23.561Z,102330.78
2023-05-19T14:00:02.007Z,102329.09
2023-05-19T14:02:42.626Z,102319.91
2023-05-19T14:05:11.144Z,102330.25
2023-05-19T14:07:39.824Z,102329.34
2023-05-19T14:10:09.693Z,102329.09
2023-05-19T14:12:55.101Z,102322.63
2023-05-19T14:15:27.155Z,102325.94
2023-05-19T14:17:57.160Z,102332.25
2023-05-19T14:20:27.879Z,102333.53
2023-05-19T14:22:57.836Z,102338.53
2023-05-19T14:25:26.452Z,102334.69
2023-05-19T14:27:55.060Z,102329.22
2023-05-19T14:30:23.672Z,102332.81
2023-05-19T14:32:52.371Z,102335.38
2023-05-19T14:35:23.352Z,102328.97
2023-05-19T14:37:52.840Z,102337.38
2023-05-19T14:40:21.527Z,102330.81
2023-05-19T14:42:50.264Z,102339.13
2023-05-19T14:45:18.764Z,102327.09
2023-05-19T14:47:48.053Z,102323.34
2023-05-19T14:50:16.633Z,102340.97
2023-05-19T14:52:46.696Z,102333.69
2023-05-19T14:55:15.284Z,102341.13
2023-05-19T14:57:43.888Z,102339.25
2023-05-19T15:00:13.604Z,102340.53
2023-05-19T15:02:42.186Z,102337.09
2023-05-19T15:05:11.871Z,102339.22
2023-05-19T15:07:40.882Z,102344.69
2023-05-19T15:10:11.475Z,102345.09
2023-05-19T15:12:40.107Z,102336.25
2023-05-19T15:15:09.970Z,102342.69
2023-05-19T15:17:38.660Z,102342.81
2023-05-19T15:20:08.557Z,102347.81
2023-05-19T15:22:37.466Z,102336.25
2023-05-19T15:25:06.506Z,102338.81
2023-05-19T15:27:37.810Z,102337.94
2023-05-19T15:30:07.547Z,102337.81
2023-05-19T15:32:36.230Z,102335.66
2023-05-19T15:35:05.155Z,102340.81
2023-05-19T15:37:33.868Z,102339.97
2023-05-19T15:40:02.569Z,102340.97
2023-05-19T15:42:31.087Z,102333.09
2023-05-19T15:45:01.362Z,102334.25
2023-05-19T15:47:30.137Z,102335.13
2023-05-19T15:49:58.807Z,102340.50
2023-05-19T15:52:27.923Z,102332.34
2023-05-19T15:54:59.175Z,102335.31
2023-05-19T15:57:28.022Z,102327.69
2023-05-19T15:59:56.656Z,102338.00
2023-05-19T16:02:27.079Z,102335.59
2023-05-19T16:04:57.056Z,102330.91
2023-05-19T16:07:25.657Z,102326.47
2023-05-19T16:09:54.363Z,102331.44
2023-05-19T16:12:24.013Z,102326.69
2023-05-19T16:14:52.802Z,102318.31
2023-05-19T16:17:21.398Z,102325.31
2023-05-19T16:19:51.679Z,102326.91
2023-05-19T16:22:21.792Z,102323.44
2023-05-19T16:24:51.113Z,102320.44
2023-05-19T16:27:19.918Z,102318.56
2023-05-19T16:29:48.628Z,102320.22
2023-05-19T16:32:17.260Z,102317.63
2023-05-19T16:34:46.088Z,102316.50
2023-05-19T16:37:16.166Z,102322.31
2023-05-19T16:39:45.170Z,102315.88
2023-05-19T16:42:13.996Z,102320.84
2023-05-19T16:44:43.662Z,102319.69
2023-05-19T16:47:12.300Z,102316.31
2023-05-19T16:49:41.237Z,102316.44
2023-05-19T16:52:09.834Z,102318.50
2023-05-19T16:54:40.015Z,102321.94
2023-05-19T16:57:08.696Z,102314.38
2023-05-19T16:59:37.397Z,102317.34
2023-05-19T17:02:06.365Z,102315.00
2023-05-19T17:04:35.394Z,102310.19
2023-05-19T17:07:04.074Z,102319.56
2023-05-19T17:09:32.896Z,102318.31
2023-05-19T17:12:03.111Z,102317.91
2023-05-19T17:14:31.820Z,102316.03
2023-05-19T17:17:00.492Z,102321.00
2023-05-19T17:19:29.330Z,102322.94
2023-05-19T17:21:57.981Z,102321.91
2023-05-19T17:24:28.723Z,102324.38
2023-05-19T17:26:57.451Z,102322.34
2023-05-19T17:29:28.274Z,102331.94
2023-05-19T17:31:57.074Z,102331.81
2023-05-19T17:34:25.751Z,102322.50
2023-05-19T17:36:54.476Z,102332.53
2023-05-19T17:39:23.168Z,102333.38
2023-05-19T17:41:51.740Z,102334.50
2023-05-19T17:44:20.371Z,102331.75
2023-05-19T17:46:50.797Z,102332.13
2023-05-19T17:49:19.571Z,102331.13
2023-05-19T17:51:48.587Z,102326.06
2023-05-19T17:54:18.076Z,102336.19
2023-05-19T17:56:47.212Z,102337.94
2023-05-19T17:59:16.438Z,102337.16
2023-05-19T18:01:45.827Z,102326.31
2023-05-19T18:04:16.721Z,102333.31
2023-05-19T18:06:46.486Z,102334.53
2023-05-19T18:09:16.591Z,102328.22
2023-05-19T18:11:45.189Z,102333.69
2023-05-19T18:14:13.857Z,102334.16
2023-05-19T18:16:42.725Z,102338.72
2023-05-19T18:19:11.477Z,102335.66
2023-05-19T18:21:42.684Z,102350.19
2023-05-19T18:24:11.599Z,102345.97
2023-05-19T18:26:42.341Z,102346.88
2023-05-19T18:29:11.584Z,102351.28
2023-05-19T18:31:40.305Z,102352.84
2023-05-19T18:34:09.008Z,102354.63
2023-05-19T18:36:37.763Z,102356.00
2023-05-19T18:39:07.954Z,102358.84
2023-05-19T18:41:37.832Z,102363.03
2023-05-19T18:44:08.303Z,102364.56
2023-05-19T18:46:37.016Z,102377.88
2023-05-19T18:49:06.170Z,102382.69
2023-05-19T18:51:36.236Z,102387.91
2023-05-19T18:54:05.100Z,102373.16
2023-05-19T18:56:35.809Z,102386.06
2023-05-19T18:59:04.499Z,102385.00
2023-05-19T19:01:33.243Z,102391.16
2023-05-19T19:04:02.302Z,102385.84
2023-05-19T19:06:31.445Z,102392.78
2023-05-19T19:09:00.207Z,102396.28
2023-05-19T19:11:28.890Z,102395.41
2023-05-19T19:13:58.962Z,102396.34
2023-05-19T19:16:27.525Z,102397.47
2023-05-19T19:18:56.368Z,102393.00
2023-05-19T19:21:25.990Z,102397.31
2023-05-19T19:23:55.757Z,102393.91
2023-05-19T19:26:25.519Z,102393.06
2023-05-19T19:28:54.156Z,102392.13
2023-05-19T19:31:26.030Z,102394.09
2023-05-19T19:33:58.977Z,102393.22
2023-05-19T19:36:28.389Z,102396.50
2023-05-19T19:38:57.154Z,102397.47
2023-05-19T19:41:26.685Z,102405.31
2023-05-19T19:43:55.283Z,102402.41
2023-05-19T19:46:25.599Z,102397.75
2023-05-19T19:48:57.377Z,102407.28
2023-05-19T19:51:26.420Z,102405.47
2023-05-19T19:53:55.083Z,102406.66
2023-05-19T19:56:26.422Z,102405.03
2023-05-19T19:58:57.555Z,102407.22
2023-05-19T20:01:29.145Z,102415.38
2023-05-19T20:03:58.478Z,102416.66
2023-05-19T20:06:27.284Z,102426.69
2023-05-19T20:08:55.988Z,102424.63
2023-05-19T20:11:26.788Z,102421.03
2023-05-19T20:13:55.349Z,102418.50
2023-05-19T20:16:24.411Z,102420.69
2023-05-19T20:18:54.690Z,102423.72
2023-05-19T20:21:23.455Z,102430.75
2023-05-19T20:23:52.087Z,102426.78
2023-05-19T20:26:20.709Z,102411.78
2023-05-19T20:28:49.403Z,102416.38
2023-05-19T20:31:18.057Z,102415.59
2023-05-19T20:33:47.003Z,102421.53
2023-05-19T20:36:17.086Z,102425.72
2023-05-19T20:38:45.766Z,102432.78
2023-05-19T20:41:14.512Z,102435.63
2023-05-19T20:43:43.169Z,102438.19
2023-05-19T20:46:11.938Z,102437.44
2023-05-19T20:48:40.810Z,102432.81
2023-05-19T20:51:09.347Z,102439.47
2023-05-19T20:53:39.447Z,102445.56
2023-05-19T20:56:10.692Z,102443.97
2023-05-19T20:58:39.268Z,102434.63
2023-05-19T21:01:08.040Z,102441.56
2023-05-19T21:03:36.728Z,102449.41
2023-05-19T21:06:05.486Z,102453.03
2023-05-19T21:08:34.152Z,102454.38
2023-05-19T21:11:04.226Z,102450.56
2023-05-19T21:13:34.054Z,102463.09
2023-05-19T21:16:02.775Z,102459.22
2023-05-19T21:18:31.364Z,102452.72
2023-05-19T21:21:03.818Z,102455.19
2023-05-19T21:23:32.570Z,102446.78
2023-05-19T21:26:01.122Z,102447.16
2023-05-19T21:28:31.254Z,102449.84
2023-05-19T21:30:59.845Z,102449.69
2023-05-19T21:33:28.464Z,102443.06
2023-05-19T21:35:58.619Z,102446.06
2023-05-19T21:38:27.307Z,102452.25
2023-05-19T21:40:56.210Z,102449.13
2023-05-19T21:43:24.952Z,102450.78
2023-05-19T21:45:55.121Z,102456.56
2023-05-19T21:48:23.699Z,102452.28
2023-05-19T21:50:55.826Z,102454.91
2023-05-19T21:53:24.606Z,102463.66
2023-05-19T21:55:53.183Z,102464.44
2023-05-19T21:58:21.932Z,102465.72
2023-05-19T22:00:51.170Z,102477.38
2023-05-19T22:03:21.988Z,102479.22
2023-05-19T22:05:51.220Z,102478.91
2023-05-19T22:08:21.117Z,102485.59
2023-05-19T22:10:51.195Z,102485.22
2023-05-19T22:13:19.948Z,102486.72
2023-05-19T22:15:48.651Z,102487.75
2023-05-19T22:18:17.254Z,102482.91
2023-05-19T22:20:47.754Z,102483.66
2023-05-19T22:23:16.447Z,102480.75
2023-05-19T22:25:45.049Z,102483.38
2023-05-19T22:28:13.769Z,102478.41
2023-05-19T22:30:42.941Z,102484.28
2023-05-19T22:33:13.267Z,102492.00
2023-05-19T22:35:43.335Z,102491.53
2023-05-19T22:38:13.400Z,102496.59
2023-05-19T22:40:42.026Z,102495.66
2023-05-19T22:43:10.751Z,102497.81
2023-05-19T22:45:39.354Z,102502.25
2023-05-19T22:48:08.406Z,102501.47
2023-05-19T22:50:36.986Z,102510.94
2023-05-19T22:53:05.635Z,102513.41
2023-05-19T22:55:35.859Z,102518.81
2023-05-19T22:58:04.655Z,102521.06
2023-05-19T23:00:33.384Z,102526.38
2023-05-19T23:03:02.077Z,102531.28
2023-05-19T23:05:30.803Z,102533.25
2023-05-19T23:07:59.397Z,102534.78
2023-05-19T23:10:28.084Z,102530.56
2023-05-19T23:12:58.228Z,102532.94
2023-05-19T23:15:26.728Z,102538.88
2023-05-19T23:17:55.438Z,102526.75
2023-05-19T23:20:24.113Z,102538.72
2023-05-19T23:22:52.751Z,102540.25
2023-05-19T23:25:21.411Z,102535.03
2023-05-19T23:27:49.903Z,102542.06
2023-05-19T23:30:22.841Z,102530.50
2023-05-19T23:32:51.554Z,102535.75
2023-05-19T23:35:20.816Z,102528.38
2023-05-19T23:37:49.621Z,102539.88
2023-05-19T23:40:18.334Z,102541.72
2023-05-19T23:42:46.962Z,102544.31
2023-05-19T23:45:15.573Z,102548.94
2023-05-19T23:47:45.614Z,102546.19
2023-05-19T23:50:14.294Z,102550.41
2023-05-19T23:52:42.925Z,102550.59
2023-05-19T23:55:13.214Z,102553.28
2023-05-19T23:57:42.274Z,102549.88
